sensor_id;sensor_type;location;lat;lon;timestamp;temperature;humidity
16781;DHT22;8507;50.056;8.248;2022-11-30T00:01:19;8.30;99.90
16781;DHT22;8507;50.056;8.248;2022-11-30T00:03:45;8.30;99.90
16781;DHT22;8507;50.056;8.248;2022-11-30T00:06:15;8.30;99.90
16781;DHT22;8507;50.056;8.248;2022-11-30T00:08:41;8.30;99.90
16781;DHT22;8507;50.056;8.248;2022-11-30T00:11:12;8.40;99.90
16781;DHT22;8507;50.056;8.248;2022-11-30T00:13:38;8.40;99.90
16781;DHT22;8507;50.056;8.248;2022-11-30T00:16:04;8.40;99.90
16781;DHT22;8507;50.056;8.248;2022-11-30T00:18:30;8.50;99.90
16781;DHT22;8507;50.056;8.248;2022-11-30T00:21:04;8.50;99.90
16781;DHT22;8507;50.056;8.248;2022-11-30T00:23:32;8.60;99.90
16781;DHT22;8507;50.056;8.248;2022-11-30T00:26:01;8.60;99.90
16781;DHT22;8507;50.056;8.248;2022-11-30T00:28:29;8.60;99.90
16781;DHT22;8507;50.056;8.248;2022-11-30T00:30:59;8.70;99.90
16781;DHT22;8507;50.056;8.248;2022-11-30T00:33:26;8.70;99.90
16781;DHT22;8507;50.056;8.248;2022-11-30T00:35:59;8.80;99.90
16781;DHT22;8507;50.056;8.248;2022-11-30T00:38:25;8.80;99.90
16781;DHT22;8507;50.056;8.248;2022-11-30T00:40:50;8.70;99.90
16781;DHT22;8507;50.056;8.248;2022-11-30T00:43:16;8.70;99.90
16781;DHT22;8507;50.056;8.248;2022-11-30T00:45:42;8.70;99.90
16781;DHT22;8507;50.056;8.248;2022-11-30T00:48:07;8.70;99.90
16781;DHT22;8507;50.056;8.248;2022-11-30T00:50:33;8.60;99.90
16781;DHT22;8507;50.056;8.248;2022-11-30T00:52:59;8.60;99.90
16781;DHT22;8507;50.056;8.248;2022-11-30T00:55:24;8.50;99.90
16781;DHT22;8507;50.056;8.248;2022-11-30T00:57:51;8.40;99.90
16781;DHT22;8507;50.056;8.248;2022-11-30T01:00:17;8.40;99.90
16781;DHT22;8507;50.056;8.248;2022-11-30T01:02:43;8.40;99.90
16781;DHT22;8507;50.056;8.248;2022-11-30T01:05:09;8.50;99.90
16781;DHT22;8507;50.056;8.248;2022-11-30T01:07:35;8.60;99.90
16781;DHT22;8507;50.056;8.248;2022-11-30T01:10:01;8.70;99.90
16781;DHT22;8507;50.056;8.248;2022-11-30T01:12:26;8.70;99.90
16781;DHT22;8507;50.056;8.248;2022-11-30T01:14:52;8.80;99.90
16781;DHT22;8507;50.056;8.248;2022-11-30T01:17:17;8.80;99.90
16781;DHT22;8507;50.056;8.248;2022-11-30T01:19:43;8.80;99.90
16781;DHT22;8507;50.056;8.248;2022-11-30T01:22:08;8.80;99.90
16781;DHT22;8507;50.056;8.248;2022-11-30T01:24:34;8.70;99.90
16781;DHT22;8507;50.056;8.248;2022-11-30T01:26:59;8.70;99.90
16781;DHT22;8507;50.056;8.248;2022-11-30T01:29:25;8.70;99.90
16781;DHT22;8507;50.056;8.248;2022-11-30T01:31:50;8.80;99.90
16781;DHT22;8507;50.056;8.248;2022-11-30T01:34:16;8.70;99.90
16781;DHT22;8507;50.056;8.248;2022-11-30T01:36:42;8.70;99.90
16781;DHT22;8507;50.056;8.248;2022-11-30T01:39:08;8.70;99.90
16781;DHT22;8507;50.056;8.248;2022-11-30T01:41:35;8.60;99.90
16781;DHT22;8507;50.056;8.248;2022-11-30T01:46:37;8.50;99.90
16781;DHT22;8507;50.056;8.248;2022-11-30T01:51:47;8.40;99.90
16781;DHT22;8507;50.056;8.248;2022-11-30T01:54:17;8.40;99.90
16781;DHT22;8507;50.056;8.248;2022-11-30T01:56:49;8.30;99.90
16781;DHT22;8507;50.056;8.248;2022-11-30T01:59:18;8.30;99.90
16781;DHT22;8507;50.056;8.248;2022-11-30T02:01:44;8.40;99.90
16781;DHT22;8507;50.056;8.248;2022-11-30T02:04:26;8.40;99.90
16781;DHT22;8507;50.056;8.248;2022-11-30T02:06:53;8.50;99.90
16781;DHT22;8507;50.056;8.248;2022-11-30T02:09:20;8.50;99.90
16781;DHT22;8507;50.056;8.248;2022-11-30T02:11:46;8.60;99.90
16781;DHT22;8507;50.056;8.248;2022-11-30T02:23:24;8.70;99.90
16781;DHT22;8507;50.056;8.248;2022-11-30T02:28:57;8.70;99.90
16781;DHT22;8507;50.056;8.248;2022-11-30T02:31:37;8.70;99.90
16781;DHT22;8507;50.056;8.248;2022-11-30T02:34:05;8.80;99.90
16781;DHT22;8507;50.056;8.248;2022-11-30T02:36:33;8.80;99.90
16781;DHT22;8507;50.056;8.248;2022-11-30T02:38:58;8.80;99.90
16781;DHT22;8507;50.056;8.248;2022-11-30T02:41:24;8.90;99.90
16781;DHT22;8507;50.056;8.248;2022-11-30T02:43:50;8.80;99.90
16781;DHT22;8507;50.056;8.248;2022-11-30T02:46:26;8.70;99.90
16781;DHT22;8507;50.056;8.248;2022-11-30T02:49:05;8.70;99.90
16781;DHT22;8507;50.056;8.248;2022-11-30T02:51:32;8.50;99.90
16781;DHT22;8507;50.056;8.248;2022-11-30T02:53:59;8.40;99.90
16781;DHT22;8507;50.056;8.248;2022-11-30T02:56:25;8.30;99.90
16781;DHT22;8507;50.056;8.248;2022-11-30T02:58:51;8.30;99.90
16781;DHT22;8507;50.056;8.248;2022-11-30T03:01:16;8.30;99.90
16781;DHT22;8507;50.056;8.248;2022-11-30T03:03:42;8.20;99.90
16781;DHT22;8507;50.056;8.248;2022-11-30T03:06:09;8.10;99.90
16781;DHT22;8507;50.056;8.248;2022-11-30T03:08:34;8.20;99.90
16781;DHT22;8507;50.056;8.248;2022-11-30T03:11:02;8.20;99.90
16781;DHT22;8507;50.056;8.248;2022-11-30T03:13:33;8.10;99.90
16781;DHT22;8507;50.056;8.248;2022-11-30T03:16:07;8.10;99.90
16781;DHT22;8507;50.056;8.248;2022-11-30T03:18:33;8.20;99.90
16781;DHT22;8507;50.056;8.248;2022-11-30T03:20:59;8.30;99.90
16781;DHT22;8507;50.056;8.248;2022-11-30T03:23:25;8.40;99.90
16781;DHT22;8507;50.056;8.248;2022-11-30T03:25:50;8.40;99.90
16781;DHT22;8507;50.056;8.248;2022-11-30T03:28:16;8.50;99.90
16781;DHT22;8507;50.056;8.248;2022-11-30T03:30:47;8.60;99.90
16781;DHT22;8507;50.056;8.248;2022-11-30T03:33:13;8.60;99.90
16781;DHT22;8507;50.056;8.248;2022-11-30T03:35:39;8.60;99.90
16781;DHT22;8507;50.056;8.248;2022-11-30T03:38:04;8.60;99.90
16781;DHT22;8507;50.056;8.248;2022-11-30T03:40:30;8.60;99.90
16781;DHT22;8507;50.056;8.248;2022-11-30T03:42:55;8.60;99.90
16781;DHT22;8507;50.056;8.248;2022-11-30T03:45:21;8.60;99.90
16781;DHT22;8507;50.056;8.248;2022-11-30T03:47:46;8.60;99.90
16781;DHT22;8507;50.056;8.248;2022-11-30T03:50:12;8.60;99.90
16781;DHT22;8507;50.056;8.248;2022-11-30T03:52:37;8.50;99.90
16781;DHT22;8507;50.056;8.248;2022-11-30T03:55:03;8.60;99.90
16781;DHT22;8507;50.056;8.248;2022-11-30T03:57:29;8.60;99.90
16781;DHT22;8507;50.056;8.248;2022-11-30T03:59:54;8.70;99.90
16781;DHT22;8507;50.056;8.248;2022-11-30T04:02:20;8.70;99.90
16781;DHT22;8507;50.056;8.248;2022-11-30T04:04:45;8.70;99.90
16781;DHT22;8507;50.056;8.248;2022-11-30T04:07:11;8.80;99.90
16781;DHT22;8507;50.056;8.248;2022-11-30T04:09:37;8.80;99.90
16781;DHT22;8507;50.056;8.248;2022-11-30T04:12:02;8.60;99.90
16781;DHT22;8507;50.056;8.248;2022-11-30T04:14:28;8.60;99.90
16781;DHT22;8507;50.056;8.248;2022-11-30T04:16:53;8.60;99.90
16781;DHT22;8507;50.056;8.248;2022-11-30T04:19:19;8.50;99.90
16781;DHT22;8507;50.056;8.248;2022-11-30T04:21:44;8.60;99.90
16781;DHT22;8507;50.056;8.248;2022-11-30T04:24:10;8.50;99.90
16781;DHT22;8507;50.056;8.248;2022-11-30T04:26:35;8.60;99.90
16781;DHT22;8507;50.056;8.248;2022-11-30T04:29:01;8.60;99.90
16781;DHT22;8507;50.056;8.248;2022-11-30T04:31:26;8.60;99.90
16781;DHT22;8507;50.056;8.248;2022-11-30T04:33:53;8.70;99.90
16781;DHT22;8507;50.056;8.248;2022-11-30T04:36:19;8.70;99.90
16781;DHT22;8507;50.056;8.248;2022-11-30T04:38:45;8.70;99.90
16781;DHT22;8507;50.056;8.248;2022-11-30T04:41:11;8.80;99.90
16781;DHT22;8507;50.056;8.248;2022-11-30T04:43:37;8.80;99.90
16781;DHT22;8507;50.056;8.248;2022-11-30T04:46:04;8.80;99.90
16781;DHT22;8507;50.056;8.248;2022-11-30T04:48:29;8.80;99.90
16781;DHT22;8507;50.056;8.248;2022-11-30T04:51:00;8.80;99.90
16781;DHT22;8507;50.056;8.248;2022-11-30T04:53:26;8.80;99.90
16781;DHT22;8507;50.056;8.248;2022-11-30T04:55:52;8.80;99.90
16781;DHT22;8507;50.056;8.248;2022-11-30T04:58:17;8.70;99.90
16781;DHT22;8507;50.056;8.248;2022-11-30T05:00:43;8.80;99.90
16781;DHT22;8507;50.056;8.248;2022-11-30T05:03:08;8.70;99.90
16781;DHT22;8507;50.056;8.248;2022-11-30T05:05:34;8.80;99.90
16781;DHT22;8507;50.056;8.248;2022-11-30T05:07:59;8.80;99.90
16781;DHT22;8507;50.056;8.248;2022-11-30T05:10:26;8.80;99.90
16781;DHT22;8507;50.056;8.248;2022-11-30T05:12:52;8.80;99.90
16781;DHT22;8507;50.056;8.248;2022-11-30T05:15:18;8.80;99.90
16781;DHT22;8507;50.056;8.248;2022-11-30T05:17:44;8.80;99.90
16781;DHT22;8507;50.056;8.248;2022-11-30T05:20:10;8.80;99.90
16781;DHT22;8507;50.056;8.248;2022-11-30T05:22:35;8.80;99.90
16781;DHT22;8507;50.056;8.248;2022-11-30T05:25:01;8.80;99.90
16781;DHT22;8507;50.056;8.248;2022-11-30T05:27:27;8.80;99.90
16781;DHT22;8507;50.056;8.248;2022-11-30T05:29:53;8.80;99.90
16781;DHT22;8507;50.056;8.248;2022-11-30T05:32:18;8.70;99.90
16781;DHT22;8507;50.056;8.248;2022-11-30T05:34:44;8.80;99.90
16781;DHT22;8507;50.056;8.248;2022-11-30T05:37:09;8.80;99.90
16781;DHT22;8507;50.056;8.248;2022-11-30T05:39:35;8.80;99.90
16781;DHT22;8507;50.056;8.248;2022-11-30T05:42:00;8.80;99.90
16781;DHT22;8507;50.056;8.248;2022-11-30T05:44:26;8.80;99.90
16781;DHT22;8507;50.056;8.248;2022-11-30T05:46:51;8.80;99.90
16781;DHT22;8507;50.056;8.248;2022-11-30T05:49:17;8.80;99.90
16781;DHT22;8507;50.056;8.248;2022-11-30T05:51:42;8.70;99.90
16781;DHT22;8507;50.056;8.248;2022-11-30T05:54:08;8.80;99.90
16781;DHT22;8507;50.056;8.248;2022-11-30T05:56:33;8.60;99.90
16781;DHT22;8507;50.056;8.248;2022-11-30T05:58:59;8.70;99.90
16781;DHT22;8507;50.056;8.248;2022-11-30T06:01:26;8.70;99.90
16781;DHT22;8507;50.056;8.248;2022-11-30T06:03:53;8.70;99.90
16781;DHT22;8507;50.056;8.248;2022-11-30T06:06:19;8.70;99.90
16781;DHT22;8507;50.056;8.248;2022-11-30T06:08:45;8.70;99.90
16781;DHT22;8507;50.056;8.248;2022-11-30T06:11:11;8.70;99.90
16781;DHT22;8507;50.056;8.248;2022-11-30T06:13:38;8.60;99.90
16781;DHT22;8507;50.056;8.248;2022-11-30T06:16:04;8.50;99.90
16781;DHT22;8507;50.056;8.248;2022-11-30T06:18:30;8.50;99.90
16781;DHT22;8507;50.056;8.248;2022-11-30T06:21:22;8.50;99.90
16781;DHT22;8507;50.056;8.248;2022-11-30T06:23:48;8.50;99.90
16781;DHT22;8507;50.056;8.248;2022-11-30T06:26:13;8.50;99.90
16781;DHT22;8507;50.056;8.248;2022-11-30T06:28:39;8.60;99.90
16781;DHT22;8507;50.056;8.248;2022-11-30T06:31:06;8.60;99.90
16781;DHT22;8507;50.056;8.248;2022-11-30T06:33:32;8.60;99.90
16781;DHT22;8507;50.056;8.248;2022-11-30T06:35:58;8.60;99.90
16781;DHT22;8507;50.056;8.248;2022-11-30T06:38:24;8.70;99.90
16781;DHT22;8507;50.056;8.248;2022-11-30T06:40:51;8.60;99.90
16781;DHT22;8507;50.056;8.248;2022-11-30T06:43:16;8.70;99.90
16781;DHT22;8507;50.056;8.248;2022-11-30T06:45:43;8.60;99.90
16781;DHT22;8507;50.056;8.248;2022-11-30T06:48:10;8.40;99.90
16781;DHT22;8507;50.056;8.248;2022-11-30T06:50:36;8.40;99.90
16781;DHT22;8507;50.056;8.248;2022-11-30T06:53:01;8.30;99.90
16781;DHT22;8507;50.056;8.248;2022-11-30T06:55:27;8.20;99.90
16781;DHT22;8507;50.056;8.248;2022-11-30T06:58:04;8.00;99.90
16781;DHT22;8507;50.056;8.248;2022-11-30T07:00:29;7.90;99.90
16781;DHT22;8507;50.056;8.248;2022-11-30T07:02:55;7.80;99.90
16781;DHT22;8507;50.056;8.248;2022-11-30T07:05:20;7.80;99.90
16781;DHT22;8507;50.056;8.248;2022-11-30T07:07:46;7.80;99.90
16781;DHT22;8507;50.056;8.248;2022-11-30T07:10:11;7.90;99.90
16781;DHT22;8507;50.056;8.248;2022-11-30T07:12:37;7.90;99.90
16781;DHT22;8507;50.056;8.248;2022-11-30T07:15:04;8.00;99.90
16781;DHT22;8507;50.056;8.248;2022-11-30T07:17:29;8.10;99.90
16781;DHT22;8507;50.056;8.248;2022-11-30T07:19:55;8.20;99.90
16781;DHT22;8507;50.056;8.248;2022-11-30T07:22:20;8.20;99.90
16781;DHT22;8507;50.056;8.248;2022-11-30T07:24:46;8.20;99.90
16781;DHT22;8507;50.056;8.248;2022-11-30T07:27:30;8.10;99.90
16781;DHT22;8507;50.056;8.248;2022-11-30T07:29:55;8.10;99.90
16781;DHT22;8507;50.056;8.248;2022-11-30T07:32:21;8.10;99.90
16781;DHT22;8507;50.056;8.248;2022-11-30T07:34:47;8.30;99.90
16781;DHT22;8507;50.056;8.248;2022-11-30T07:37:12;8.40;99.90
16781;DHT22;8507;50.056;8.248;2022-11-30T07:39:38;8.50;99.90
16781;DHT22;8507;50.056;8.248;2022-11-30T07:42:03;8.60;99.90
16781;DHT22;8507;50.056;8.248;2022-11-30T07:44:29;8.70;99.90
16781;DHT22;8507;50.056;8.248;2022-11-30T07:46:54;8.80;99.90
16781;DHT22;8507;50.056;8.248;2022-11-30T07:49:20;8.90;99.90
16781;DHT22;8507;50.056;8.248;2022-11-30T07:51:45;8.90;99.90
16781;DHT22;8507;50.056;8.248;2022-11-30T07:54:11;8.90;99.90
16781;DHT22;8507;50.056;8.248;2022-11-30T07:56:36;9.00;99.90
16781;DHT22;8507;50.056;8.248;2022-11-30T07:59:02;9.10;99.90
16781;DHT22;8507;50.056;8.248;2022-11-30T08:01:30;9.00;99.90
16781;DHT22;8507;50.056;8.248;2022-11-30T08:03:57;9.00;99.90
16781;DHT22;8507;50.056;8.248;2022-11-30T08:06:25;9.10;99.90
16781;DHT22;8507;50.056;8.248;2022-11-30T08:08:53;9.10;99.90
16781;DHT22;8507;50.056;8.248;2022-11-30T08:11:37;8.90;99.90
16781;DHT22;8507;50.056;8.248;2022-11-30T08:14:03;8.90;99.90
16781;DHT22;8507;50.056;8.248;2022-11-30T08:16:33;8.90;99.90
16781;DHT22;8507;50.056;8.248;2022-11-30T08:18:58;8.80;99.90
16781;DHT22;8507;50.056;8.248;2022-11-30T08:21:24;8.90;99.90
16781;DHT22;8507;50.056;8.248;2022-11-30T08:23:52;8.90;99.90
16781;DHT22;8507;50.056;8.248;2022-11-30T08:26:23;9.10;99.90
16781;DHT22;8507;50.056;8.248;2022-11-30T08:28:50;9.20;99.90
16781;DHT22;8507;50.056;8.248;2022-11-30T08:31:19;9.30;99.90
16781;DHT22;8507;50.056;8.248;2022-11-30T08:33:46;9.40;99.90
16781;DHT22;8507;50.056;8.248;2022-11-30T08:36:16;9.50;99.90
16781;DHT22;8507;50.056;8.248;2022-11-30T08:38:43;9.50;99.90
16781;DHT22;8507;50.056;8.248;2022-11-30T08:41:11;9.60;99.90
16781;DHT22;8507;50.056;8.248;2022-11-30T08:43:37;9.70;99.90
16781;DHT22;8507;50.056;8.248;2022-11-30T08:46:04;9.40;99.90
16781;DHT22;8507;50.056;8.248;2022-11-30T08:48:31;9.30;99.90
16781;DHT22;8507;50.056;8.248;2022-11-30T08:51:00;9.20;99.90
16781;DHT22;8507;50.056;8.248;2022-11-30T08:53:29;9.10;99.90
16781;DHT22;8507;50.056;8.248;2022-11-30T08:55:56;9.10;99.90
16781;DHT22;8507;50.056;8.248;2022-11-30T08:58:22;9.10;99.90
16781;DHT22;8507;50.056;8.248;2022-11-30T09:00:48;9.20;99.90
16781;DHT22;8507;50.056;8.248;2022-11-30T09:03:13;9.40;99.90
16781;DHT22;8507;50.056;8.248;2022-11-30T09:05:39;9.70;99.90
16781;DHT22;8507;50.056;8.248;2022-11-30T09:08:04;9.70;99.90
16781;DHT22;8507;50.056;8.248;2022-11-30T09:10:30;9.90;99.90
16781;DHT22;8507;50.056;8.248;2022-11-30T09:12:55;10.10;99.90
16781;DHT22;8507;50.056;8.248;2022-11-30T09:15:21;10.10;99.90
16781;DHT22;8507;50.056;8.248;2022-11-30T09:17:46;10.20;99.90
16781;DHT22;8507;50.056;8.248;2022-11-30T09:20:12;10.30;99.90
16781;DHT22;8507;50.056;8.248;2022-11-30T09:22:39;10.40;99.90
16781;DHT22;8507;50.056;8.248;2022-11-30T09:25:04;10.50;99.90
16781;DHT22;8507;50.056;8.248;2022-11-30T09:27:31;10.70;99.90
16781;DHT22;8507;50.056;8.248;2022-11-30T09:29:57;10.80;99.90
16781;DHT22;8507;50.056;8.248;2022-11-30T09:32:23;11.00;99.90
16781;DHT22;8507;50.056;8.248;2022-11-30T09:34:48;11.10;99.90
16781;DHT22;8507;50.056;8.248;2022-11-30T09:37:14;11.10;99.90
16781;DHT22;8507;50.056;8.248;2022-11-30T09:39:39;11.30;99.90
16781;DHT22;8507;50.056;8.248;2022-11-30T09:45:05;10.90;99.90
16781;DHT22;8507;50.056;8.248;2022-11-30T09:50:19;10.40;99.90
16781;DHT22;8507;50.056;8.248;2022-11-30T09:52:48;10.40;99.90
16781;DHT22;8507;50.056;8.248;2022-11-30T09:55:23;10.50;99.90
16781;DHT22;8507;50.056;8.248;2022-11-30T09:58:00;10.70;99.90
16781;DHT22;8507;50.056;8.248;2022-11-30T10:00:26;10.80;99.90
16781;DHT22;8507;50.056;8.248;2022-11-30T10:02:55;10.70;99.90
16781;DHT22;8507;50.056;8.248;2022-11-30T10:05:22;10.60;99.90
16781;DHT22;8507;50.056;8.248;2022-11-30T10:11:54;10.40;99.90
16781;DHT22;8507;50.056;8.248;2022-11-30T10:14:31;10.00;99.90
16781;DHT22;8507;50.056;8.248;2022-11-30T10:25:32;10.40;99.90
16781;DHT22;8507;50.056;8.248;2022-11-30T10:28:30;10.40;99.90
16781;DHT22;8507;50.056;8.248;2022-11-30T10:30:51;10.40;99.90
16781;DHT22;8507;50.056;8.248;2022-11-30T10:33:24;10.10;99.90
16781;DHT22;8507;50.056;8.248;2022-11-30T10:35:53;9.80;99.90
16781;DHT22;8507;50.056;8.248;2022-11-30T10:38:24;9.60;99.90
16781;DHT22;8507;50.056;8.248;2022-11-30T10:41:22;9.40;99.90
16781;DHT22;8507;50.056;8.248;2022-11-30T10:43:58;9.20;99.90
16781;DHT22;8507;50.056;8.248;2022-11-30T10:46:29;9.20;99.90
16781;DHT22;8507;50.056;8.248;2022-11-30T10:49:01;9.40;99.90
16781;DHT22;8507;50.056;8.248;2022-11-30T10:51:27;9.60;99.90
16781;DHT22;8507;50.056;8.248;2022-11-30T10:53:53;9.80;99.90
16781;DHT22;8507;50.056;8.248;2022-11-30T10:56:19;9.90;99.90
16781;DHT22;8507;50.056;8.248;2022-11-30T11:01:34;10.00;99.90
16781;DHT22;8507;50.056;8.248;2022-11-30T11:04:08;10.10;99.90
16781;DHT22;8507;50.056;8.248;2022-11-30T11:06:34;10.20;99.90
16781;DHT22;8507;50.056;8.248;2022-11-30T11:09:39;10.20;99.90
16781;DHT22;8507;50.056;8.248;2022-11-30T11:12:27;10.30;99.90
16781;DHT22;8507;50.056;8.248;2022-11-30T11:15:25;10.30;99.90
16781;DHT22;8507;50.056;8.248;2022-11-30T11:17:52;10.30;99.90
16781;DHT22;8507;50.056;8.248;2022-11-30T11:22:54;10.40;99.90
16781;DHT22;8507;50.056;8.248;2022-11-30T11:25:22;10.40;99.90
16781;DHT22;8507;50.056;8.248;2022-11-30T11:27:54;10.40;99.90
16781;DHT22;8507;50.056;8.248;2022-11-30T11:30:30;10.40;99.90
16781;DHT22;8507;50.056;8.248;2022-11-30T11:35:39;10.40;99.90
16781;DHT22;8507;50.056;8.248;2022-11-30T11:38:24;10.50;99.90
16781;DHT22;8507;50.056;8.248;2022-11-30T11:43:20;10.60;99.90
16781;DHT22;8507;50.056;8.248;2022-11-30T11:45:58;10.70;99.90
16781;DHT22;8507;50.056;8.248;2022-11-30T11:48:40;10.60;99.90
16781;DHT22;8507;50.056;8.248;2022-11-30T11:51:10;10.70;99.90
16781;DHT22;8507;50.056;8.248;2022-11-30T11:53:49;10.70;99.90
16781;DHT22;8507;50.056;8.248;2022-11-30T11:56:26;10.60;99.90
16781;DHT22;8507;50.056;8.248;2022-11-30T12:04:43;10.60;99.90
16781;DHT22;8507;50.056;8.248;2022-11-30T12:07:36;10.60;99.90
16781;DHT22;8507;50.056;8.248;2022-11-30T12:10:25;10.60;99.90
16781;DHT22;8507;50.056;8.248;2022-11-30T12:12:54;10.70;99.90
16781;DHT22;8507;50.056;8.248;2022-11-30T12:15:31;10.70;99.90
16781;DHT22;8507;50.056;8.248;2022-11-30T12:18:06;10.70;99.90
16781;DHT22;8507;50.056;8.248;2022-11-30T12:20:59;10.70;99.90
16781;DHT22;8507;50.056;8.248;2022-11-30T12:31:26;10.30;99.90
16781;DHT22;8507;50.056;8.248;2022-11-30T12:34:56;10.00;99.90
16781;DHT22;8507;50.056;8.248;2022-11-30T12:45:18;10.00;99.90
16781;DHT22;8507;50.056;8.248;2022-11-30T12:47:55;10.20;99.90
16781;DHT22;8507;50.056;8.248;2022-11-30T12:53:15;10.40;99.90
16781;DHT22;8507;50.056;8.248;2022-11-30T13:06:29;10.50;99.90
16781;DHT22;8507;50.056;8.248;2022-11-30T13:09:01;10.40;99.90
16781;DHT22;8507;50.056;8.248;2022-11-30T13:11:38;10.40;99.90
16781;DHT22;8507;50.056;8.248;2022-11-30T13:14:20;10.40;99.90
16781;DHT22;8507;50.056;8.248;2022-11-30T13:16:48;10.40;99.90
16781;DHT22;8507;50.056;8.248;2022-11-30T13:22:09;10.20;99.90
16781;DHT22;8507;50.056;8.248;2022-11-30T13:24:48;10.30;99.90
16781;DHT22;8507;50.056;8.248;2022-11-30T13:27:29;10.30;99.90
16781;DHT22;8507;50.056;8.248;2022-11-30T13:32:34;10.20;99.90
16781;DHT22;8507;50.056;8.248;2022-11-30T13:38:17;9.90;99.90
16781;DHT22;8507;50.056;8.248;2022-11-30T13:40:56;9.80;99.90
16781;DHT22;8507;50.056;8.248;2022-11-30T13:43:23;9.60;99.90
16781;DHT22;8507;50.056;8.248;2022-11-30T13:48:38;9.40;99.90
16781;DHT22;8507;50.056;8.248;2022-11-30T13:51:05;9.20;99.90
16781;DHT22;8507;50.056;8.248;2022-11-30T13:53:33;9.20;99.90
16781;DHT22;8507;50.056;8.248;2022-11-30T13:56:01;9.40;99.90
16781;DHT22;8507;50.056;8.248;2022-11-30T13:58:27;9.50;99.90
16781;DHT22;8507;50.056;8.248;2022-11-30T14:01:23;9.50;99.90
16781;DHT22;8507;50.056;8.248;2022-11-30T14:06:43;9.70;99.90
16781;DHT22;8507;50.056;8.248;2022-11-30T14:09:52;9.80;99.90
16781;DHT22;8507;50.056;8.248;2022-11-30T14:14:56;9.50;99.90
16781;DHT22;8507;50.056;8.248;2022-11-30T14:17:25;9.60;99.90
16781;DHT22;8507;50.056;8.248;2022-11-30T14:19:54;9.60;99.90
16781;DHT22;8507;50.056;8.248;2022-11-30T14:22:22;9.70;99.90
16781;DHT22;8507;50.056;8.248;2022-11-30T14:24:49;9.80;99.90
16781;DHT22;8507;50.056;8.248;2022-11-30T14:27:19;9.80;99.90
16781;DHT22;8507;50.056;8.248;2022-11-30T14:29:48;9.80;99.90
16781;DHT22;8507;50.056;8.248;2022-11-30T14:32:36;9.90;99.90
16781;DHT22;8507;50.056;8.248;2022-11-30T14:35:11;9.90;99.90
16781;DHT22;8507;50.056;8.248;2022-11-30T14:38:00;10.00;99.90
16781;DHT22;8507;50.056;8.248;2022-11-30T14:40:27;9.90;99.90
16781;DHT22;8507;50.056;8.248;2022-11-30T14:42:59;9.80;99.90
16781;DHT22;8507;50.056;8.248;2022-11-30T14:45:30;9.70;99.90
16781;DHT22;8507;50.056;8.248;2022-11-30T14:48:13;9.70;99.90
16781;DHT22;8507;50.056;8.248;2022-11-30T14:50:50;9.80;99.90
16781;DHT22;8507;50.056;8.248;2022-11-30T14:53:46;9.80;99.90
16781;DHT22;8507;50.056;8.248;2022-11-30T14:56:34;9.80;99.90
16781;DHT22;8507;50.056;8.248;2022-11-30T15:01:32;9.50;99.90
16781;DHT22;8507;50.056;8.248;2022-11-30T15:04:10;9.60;99.90
16781;DHT22;8507;50.056;8.248;2022-11-30T15:06:38;9.10;99.90
16781;DHT22;8507;50.056;8.248;2022-11-30T15:09:04;8.90;99.90
16781;DHT22;8507;50.056;8.248;2022-11-30T15:11:40;8.90;99.90
16781;DHT22;8507;50.056;8.248;2022-11-30T15:14:08;9.00;99.90
16781;DHT22;8507;50.056;8.248;2022-11-30T15:16:34;8.70;99.90
16781;DHT22;8507;50.056;8.248;2022-11-30T15:19:35;8.70;99.90
16781;DHT22;8507;50.056;8.248;2022-11-30T15:22:00;8.70;99.90
16781;DHT22;8507;50.056;8.248;2022-11-30T15:24:27;8.80;99.90
16781;DHT22;8507;50.056;8.248;2022-11-30T15:27:08;8.90;99.90
16781;DHT22;8507;50.056;8.248;2022-11-30T15:29:42;8.90;99.90
16781;DHT22;8507;50.056;8.248;2022-11-30T15:32:16;8.80;99.90
16781;DHT22;8507;50.056;8.248;2022-11-30T15:34:46;8.70;99.90
16781;DHT22;8507;50.056;8.248;2022-11-30T15:37:13;8.40;99.90
16781;DHT22;8507;50.056;8.248;2022-11-30T15:39:39;8.30;99.90
16781;DHT22;8507;50.056;8.248;2022-11-30T15:42:35;8.40;99.90
16781;DHT22;8507;50.056;8.248;2022-11-30T15:45:28;8.40;99.90
16781;DHT22;8507;50.056;8.248;2022-11-30T15:47:55;8.40;99.90
16781;DHT22;8507;50.056;8.248;2022-11-30T15:52:54;8.30;99.90
16781;DHT22;8507;50.056;8.248;2022-11-30T15:55:43;8.20;99.90
16781;DHT22;8507;50.056;8.248;2022-11-30T16:00:58;8.10;99.90
16781;DHT22;8507;50.056;8.248;2022-11-30T16:03:24;8.10;99.90
16781;DHT22;8507;50.056;8.248;2022-11-30T16:05:56;8.10;99.90
16781;DHT22;8507;50.056;8.248;2022-11-30T16:08:22;8.20;99.90
16781;DHT22;8507;50.056;8.248;2022-11-30T16:10:48;8.30;99.90
16781;DHT22;8507;50.056;8.248;2022-11-30T16:13:14;8.40;99.90
16781;DHT22;8507;50.056;8.248;2022-11-30T16:15:44;8.40;99.90
16781;DHT22;8507;50.056;8.248;2022-11-30T16:18:18;8.40;99.90
16781;DHT22;8507;50.056;8.248;2022-11-30T16:20:50;8.40;99.90
16781;DHT22;8507;50.056;8.248;2022-11-30T16:23:16;8.40;99.90
16781;DHT22;8507;50.056;8.248;2022-11-30T16:25:45;8.40;99.90
16781;DHT22;8507;50.056;8.248;2022-11-30T16:28:12;8.40;99.90
16781;DHT22;8507;50.056;8.248;2022-11-30T16:30:39;8.30;99.90
16781;DHT22;8507;50.056;8.248;2022-11-30T16:33:08;8.30;99.90
16781;DHT22;8507;50.056;8.248;2022-11-30T16:35:38;8.20;99.90
16781;DHT22;8507;50.056;8.248;2022-11-30T16:38:05;8.20;99.90
16781;DHT22;8507;50.056;8.248;2022-11-30T16:40:31;8.20;99.90
16781;DHT22;8507;50.056;8.248;2022-11-30T16:42:57;8.20;99.90
16781;DHT22;8507;50.056;8.248;2022-11-30T16:45:24;8.20;99.90
16781;DHT22;8507;50.056;8.248;2022-11-30T16:47:51;8.10;99.90
16781;DHT22;8507;50.056;8.248;2022-11-30T16:50:17;7.90;99.90
16781;DHT22;8507;50.056;8.248;2022-11-30T16:52:44;7.80;99.90
16781;DHT22;8507;50.056;8.248;2022-11-30T16:55:15;7.90;99.90
16781;DHT22;8507;50.056;8.248;2022-11-30T16:57:41;7.90;99.90
16781;DHT22;8507;50.056;8.248;2022-11-30T17:00:08;7.90;99.90
16781;DHT22;8507;50.056;8.248;2022-11-30T17:02:35;7.90;99.90
16781;DHT22;8507;50.056;8.248;2022-11-30T17:05:02;7.90;99.90
16781;DHT22;8507;50.056;8.248;2022-11-30T17:07:28;8.00;99.90
16781;DHT22;8507;50.056;8.248;2022-11-30T17:09:54;7.90;99.90
16781;DHT22;8507;50.056;8.248;2022-11-30T17:12:19;7.80;99.90
16781;DHT22;8507;50.056;8.248;2022-11-30T17:14:45;7.80;99.90
16781;DHT22;8507;50.056;8.248;2022-11-30T17:17:10;7.80;99.90
16781;DHT22;8507;50.056;8.248;2022-11-30T17:19:36;7.80;99.90
16781;DHT22;8507;50.056;8.248;2022-11-30T17:22:03;7.90;99.90
16781;DHT22;8507;50.056;8.248;2022-11-30T17:24:28;7.80;99.90
16781;DHT22;8507;50.056;8.248;2022-11-30T17:26:54;8.00;99.90
16781;DHT22;8507;50.056;8.248;2022-11-30T17:29:20;8.00;99.90
16781;DHT22;8507;50.056;8.248;2022-11-30T17:31:45;7.90;99.90
16781;DHT22;8507;50.056;8.248;2022-11-30T17:34:11;7.90;99.90
16781;DHT22;8507;50.056;8.248;2022-11-30T17:36:36;8.00;99.90
16781;DHT22;8507;50.056;8.248;2022-11-30T17:39:06;8.10;99.90
16781;DHT22;8507;50.056;8.248;2022-11-30T17:41:32;7.90;99.90
16781;DHT22;8507;50.056;8.248;2022-11-30T17:44:00;7.90;99.90
16781;DHT22;8507;50.056;8.248;2022-11-30T17:46:26;7.90;99.90
16781;DHT22;8507;50.056;8.248;2022-11-30T17:48:52;8.10;99.90
16781;DHT22;8507;50.056;8.248;2022-11-30T17:51:19;8.10;99.90
16781;DHT22;8507;50.056;8.248;2022-11-30T17:53:44;8.00;99.90
16781;DHT22;8507;50.056;8.248;2022-11-30T17:56:12;7.90;99.90
16781;DHT22;8507;50.056;8.248;2022-11-30T17:58:39;7.80;99.90